Guaraniacu, Brazil
Current Conditions -  °F | °C
As of 7:00 PM on Monday 26 Jan 2015 (Local Time) from SBCA Reporting Station
Rain Showers Rain Showers  
Wind Chill: 88°   Ceiling: Unl
Heat Index: 89°   Visibility: 6mi
Dew Point: 64°   Wind: 8mph
Humidity: 46%   Direction: 180°S
Pressure: 29.88"   Gusts: NA
Location:  25.1°S, 52.88°W
Report Text: SBCA 262100Z 18007KT 9999 VCSH FEW030 FEW035TCU 31/18 Q1012
Loading
Personal Weather Stations






























Interactive Weather Map New forecast layout! Learn more

10-Day Weather Forecast

Advertisements
Track Severe Weather on mobile